Time;durP1;ratioP1;P1;durP2;ratioP2;P2;SDS_P1;SDS_P2;PMS_P1;PMS_P2;Temp;Humidity;BMP_temperature;BMP_pressure;BME280_temperature;BME280_humidity;BME280_pressure;Samples;Min_cycle;Max_cycle;Signal;HPM_P1;HPM_P2
2021/09/25 00:02:03;;;;;;;4.90;3.60;;;10.10;92.70;;;;;;4984050;28;20034;-67
2021/09/25 00:04:29;;;;;;;5.93;4.00;;;10.10;92.30;;;;;;4981719;28;20121;-67
2021/09/25 00:06:55;;;;;;;5.13;3.67;;;10.10;92.20;;;;;;4981778;28;20026;-68
2021/09/25 00:09:20;;;;;;;3.65;2.83;;;10.20;91.30;;;;;;4997715;28;20041;-67
2021/09/25 00:11:46;;;;;;;3.45;2.58;;;9.80;88.10;;;;;;4982342;28;20101;-67
2021/09/25 00:14:12;;;;;;;3.00;2.63;;;9.70;88.50;;;;;;4999429;28;20049;-68
2021/09/25 00:16:37;;;;;;;3.88;2.63;;;9.80;88.60;;;;;;4992955;28;20072;-67
2021/09/25 00:19:03;;;;;;;2.72;2.45;;;9.80;88.40;;;;;;4996392;28;20061;-68
2021/09/25 00:21:30;;;;;;;2.75;2.53;;;9.80;89.50;;;;;;4978558;28;20073;-68
2021/09/25 00:23:56;;;;;;;4.50;2.67;;;9.80;89.10;;;;;;4981654;28;20173;-68
2021/09/25 00:26:23;;;;;;;3.00;2.40;;;9.70;89.30;;;;;;4980869;28;20137;-67
2021/09/25 00:28:49;;;;;;;3.78;2.80;;;9.80;89.90;;;;;;4982470;28;20041;-67
2021/09/25 00:31:15;;;;;;;3.10;2.35;;;9.70;90.10;;;;;;4982178;28;20145;-68
2021/09/25 00:33:41;;;;;;;3.08;2.67;;;9.60;90.30;;;;;;4997203;28;20488;-67
2021/09/25 00:36:07;;;;;;;4.40;2.65;;;9.50;90.80;;;;;;4983514;28;20030;-67
2021/09/25 00:38:32;;;;;;;3.63;2.83;;;9.40;91.40;;;;;;4982160;28;20049;-68
2021/09/25 00:40:59;;;;;;;4.80;3.33;;;9.50;91.40;;;;;;4982004;28;20026;-68
2021/09/25 00:43:24;;;;;;;3.53;2.75;;;9.40;91.30;;;;;;4984787;28;20188;-68
2021/09/25 00:45:50;;;;;;;3.45;2.80;;;9.40;91.20;;;;;;4981125;28;20997;-68
2021/09/25 00:48:16;;;;;;;3.53;2.88;;;9.30;91.70;;;;;;4981476;28;20085;-68
2021/09/25 00:50:41;;;;;;;3.83;2.90;;;9.40;91.80;;;;;;4982210;28;20026;-68
2021/09/25 00:53:07;;;;;;;7.25;3.20;;;9.40;91.60;;;;;;4983592;28;20045;-68
2021/09/25 00:55:34;;;;;;;3.88;2.88;;;9.40;91.60;;;;;;4997785;28;20041;-67
2021/09/25 00:58:03;;;;;;;2.78;2.42;;;9.40;91.40;;;;;;4983735;28;20084;-67
2021/09/25 01:00:30;;;;;;;2.92;2.67;;;9.30;92.00;;;;;;4986512;28;20066;-68
2021/09/25 01:02:56;;;;;;;4.50;3.55;;;9.30;92.30;;;;;;4983777;28;20418;-67
2021/09/25 01:05:23;;;;;;;4.15;3.05;;;9.30;92.50;;;;;;4984624;28;20032;-67
2021/09/25 01:07:50;;;;;;;4.10;3.15;;;9.30;93.00;;;;;;4982506;28;20037;-67
2021/09/25 01:10:17;;;;;;;3.35;3.00;;;9.30;92.90;;;;;;4983174;28;20022;-67
2021/09/25 01:12:43;;;;;;;5.80;3.42;;;9.40;92.80;;;;;;4996408;28;20187;-68
2021/09/25 01:15:09;;;;;;;3.40;2.97;;;9.30;92.70;;;;;;4981120;28;20410;-69
2021/09/25 01:17:35;;;;;;;4.55;3.20;;;9.30;92.50;;;;;;4982591;28;20030;-68
2021/09/25 01:20:01;;;;;;;4.95;3.38;;;9.30;92.50;;;;;;4981168;28;20041;-67
2021/09/25 01:22:28;;;;;;;3.20;2.90;;;9.20;92.50;;;;;;4980279;28;20096;-67
2021/09/25 01:24:54;;;;;;;3.33;2.95;;;9.20;92.60;;;;;;4981400;28;20559;-68
2021/09/25 01:27:20;;;;;;;3.65;2.92;;;9.10;92.50;;;;;;4983548;28;20101;-68
2021/09/25 01:29:46;;;;;;;3.22;2.85;;;9.00;92.80;;;;;;4995544;28;20034;-68
2021/09/25 01:32:13;;;;;;;4.70;3.00;;;9.10;92.40;;;;;;4995500;28;20038;-67
2021/09/25 01:34:39;;;;;;;4.07;2.92;;;9.10;92.70;;;;;;4982540;28;20038;-68
2021/09/25 01:37:05;;;;;;;4.72;3.28;;;9.10;92.70;;;;;;4981192;28;21673;-68
2021/09/25 01:39:32;;;;;;;4.43;2.83;;;9.20;92.40;;;;;;4983160;28;20037;-67
2021/09/25 01:41:59;;;;;;;3.63;3.10;;;9.10;92.40;;;;;;4980189;28;20129;-67
2021/09/25 01:44:26;;;;;;;3.78;2.97;;;9.00;92.50;;;;;;4981289;28;20022;-67
2021/09/25 01:46:57;;;;;;;3.17;2.42;;;9.00;91.00;;;;;;4982585;28;20019;-67
2021/09/25 01:49:23;;;;;;;2.70;2.50;;;8.90;90.40;;;;;;4982694;28;20041;-67
2021/09/25 01:51:49;;;;;;;2.38;2.17;;;8.80;90.40;;;;;;4982747;28;20105;-67
2021/09/25 01:54:15;;;;;;;2.80;2.35;;;8.70;90.10;;;;;;4981596;28;20038;-67
2021/09/25 01:56:42;;;;;;;2.97;2.17;;;8.60;90.20;;;;;;4980813;28;20038;-67
2021/09/25 01:59:07;;;;;;;2.28;2.08;;;8.50;89.90;;;;;;4984299;28;20040;-67
2021/09/25 02:01:33;;;;;;;2.92;2.55;;;8.40;90.20;;;;;;4983732;28;20030;-67
2021/09/25 02:03:59;;;;;;;4.07;2.70;;;8.40;90.70;;;;;;4986400;28;20042;-67
2021/09/25 02:06:24;;;;;;;3.35;2.40;;;8.40;90.70;;;;;;4985435;28;20110;-68
2021/09/25 02:08:50;;;;;;;2.60;2.40;;;8.40;90.50;;;;;;4986144;28;20439;-67
2021/09/25 02:11:16;;;;;;;2.92;2.60;;;8.40;90.80;;;;;;4985590;28;20030;-67
2021/09/25 02:13:42;;;;;;;3.28;2.75;;;8.30;91.20;;;;;;4985808;28;20073;-68
2021/09/25 02:16:08;;;;;;;2.90;2.60;;;8.40;91.40;;;;;;4985854;28;20587;-67
2021/09/25 02:18:36;;;;;;;2.90;2.60;;;8.40;91.10;;;;;;4986938;28;20077;-68
2021/09/25 02:21:02;;;;;;;4.05;2.55;;;8.40;91.00;;;;;;4985542;28;20023;-67
2021/09/25 02:23:28;;;;;;;4.22;2.67;;;8.40;91.20;;;;;;4983044;28;20050;-67
2021/09/25 02:25:54;;;;;;;2.97;2.67;;;8.30;91.60;;;;;;4987558;28;20968;-67
2021/09/25 02:28:19;;;;;;;3.72;2.97;;;8.30;92.00;;;;;;4987671;28;20030;-67
2021/09/25 02:30:46;;;;;;;4.28;3.45;;;8.40;92.00;;;;;;4985963;28;20030;-68
2021/09/25 02:33:12;;;;;;;4.10;2.90;;;8.30;92.40;;;;;;4988013;28;20037;-67
2021/09/25 02:35:37;;;;;;;6.43;3.00;;;8.30;92.20;;;;;;4998922;28;20038;-67
2021/09/25 02:38:03;;;;;;;4.80;2.72;;;8.30;91.80;;;;;;4983878;28;20120;-68
2021/09/25 02:40:29;;;;;;;2.85;2.30;;;8.30;91.50;;;;;;4987499;28;20041;-67
2021/09/25 02:42:54;;;;;;;3.05;2.75;;;8.30;91.60;;;;;;4984244;28;20176;-67
2021/09/25 02:45:20;;;;;;;5.30;2.35;;;8.30;91.40;;;;;;4998145;28;20479;-67
2021/09/25 02:47:46;;;;;;;2.58;2.38;;;8.10;91.90;;;;;;5000334;28;20048;-67
2021/09/25 02:50:14;;;;;;;3.75;2.50;;;7.90;92.50;;;;;;4987289;28;20034;-67
2021/09/25 02:52:40;;;;;;;3.35;2.55;;;7.90;92.20;;;;;;4983902;28;20074;-67
2021/09/25 02:55:06;;;;;;;2.83;2.10;;;8.00;92.00;;;;;;4985634;28;20157;-67
2021/09/25 02:57:32;;;;;;;4.00;2.47;;;7.90;91.80;;;;;;4986154;28;20535;-67
2021/09/25 02:59:58;;;;;;;2.15;1.90;;;7.90;91.80;;;;;;4982786;28;20033;-67
2021/09/25 03:02:23;;;;;;;2.50;2.15;;;7.80;91.60;;;;;;4984415;28;21537;-67
2021/09/25 03:04:49;;;;;;;3.08;2.58;;;7.80;91.70;;;;;;4984991;28;20108;-67
2021/09/25 03:07:15;;;;;;;3.00;2.50;;;7.80;91.50;;;;;;4984079;28;20085;-67
2021/09/25 03:09:41;;;;;;;3.47;2.47;;;7.80;91.80;;;;;;4984990;28;20022;-68
2021/09/25 03:12:07;;;;;;;2.90;2.35;;;7.70;91.90;;;;;;5000265;28;20783;-67
2021/09/25 03:14:32;;;;;;;3.85;2.40;;;7.80;92.40;;;;;;4985510;28;20030;-67
2021/09/25 03:16:58;;;;;;;4.50;3.45;;;7.70;92.20;;;;;;4983679;28;20030;-67
2021/09/25 03:19:24;;;;;;;3.58;3.17;;;7.70;93.50;;;;;;4987165;28;20033;-67
2021/09/25 03:21:49;;;;;;;3.50;2.67;;;7.70;93.10;;;;;;5002307;28;20530;-68
2021/09/25 03:24:15;;;;;;;3.08;2.45;;;7.80;92.80;;;;;;4984385;28;20034;-67
2021/09/25 03:26:40;;;;;;;3.90;2.75;;;7.80;92.70;;;;;;5000196;28;20030;-67
2021/09/25 03:29:08;;;;;;;3.28;2.75;;;7.70;92.20;;;;;;4983698;28;20398;-67
2021/09/25 03:31:33;;;;;;;3.25;2.67;;;7.80;91.90;;;;;;4983586;28;20451;-67
2021/09/25 03:33:59;;;;;;;4.07;2.78;;;7.60;92.00;;;;;;4986698;28;20033;-67
2021/09/25 03:36:25;;;;;;;3.22;2.58;;;7.40;92.70;;;;;;4984129;28;20505;-67
2021/09/25 03:38:50;;;;;;;2.72;2.53;;;7.50;92.60;;;;;;4984426;28;20028;-68
2021/09/25 03:41:16;;;;;;;4.03;2.80;;;7.60;92.50;;;;;;4999177;28;20138;-67
2021/09/25 03:43:42;;;;;;;3.95;2.80;;;7.60;92.60;;;;;;4984984;28;20066;-67
2021/09/25 03:46:08;;;;;;;4.40;3.10;;;7.70;92.50;;;;;;4997839;28;20030;-67
2021/09/25 03:48:33;;;;;;;4.78;3.42;;;7.70;92.70;;;;;;4993866;28;20037;-67
2021/09/25 03:50:59;;;;;;;5.35;3.42;;;7.70;93.10;;;;;;4989464;28;20035;-67
2021/09/25 03:53:25;;;;;;;3.97;3.35;;;7.60;93.10;;;;;;4990699;28;20156;-68
2021/09/25 03:55:51;;;;;;;4.35;3.20;;;7.70;92.70;;;;;;4991413;28;20034;-67
2021/09/25 03:58:16;;;;;;;3.33;2.80;;;7.60;92.70;;;;;;4988868;28;20037;-67
2021/09/25 04:00:42;;;;;;;3.90;2.67;;;7.60;93.10;;;;;;4990411;28;20105;-68
2021/09/25 04:03:12;;;;;;;3.50;2.83;;;7.60;92.90;;;;;;4985923;28;20040;-67
2021/09/25 04:05:39;;;;;;;4.07;2.60;;;7.60;93.10;;;;;;5000214;28;20113;-67
2021/09/25 04:08:05;;;;;;;4.60;2.50;;;7.70;92.90;;;;;;4982738;28;20101;-67
2021/09/25 04:10:31;;;;;;;3.28;2.72;;;7.60;92.40;;;;;;4983754;28;20490;-67
2021/09/25 04:12:57;;;;;;;5.07;2.80;;;7.60;92.40;;;;;;4999885;28;20053;-67
2021/09/25 04:15:22;;;;;;;3.22;2.55;;;7.70;92.40;;;;;;4985286;28;20145;-67
2021/09/25 04:17:49;;;;;;;2.78;2.30;;;7.70;92.30;;;;;;4982992;28;20088;-68
2021/09/25 04:20:15;;;;;;;2.53;2.30;;;7.70;92.10;;;;;;4984375;28;20655;-67
2021/09/25 04:22:41;;;;;;;2.60;2.40;;;7.70;92.20;;;;;;4983777;28;20092;-67
2021/09/25 04:25:07;;;;;;;2.75;2.25;;;7.70;92.60;;;;;;4999023;28;20026;-67
2021/09/25 04:27:33;;;;;;;2.88;2.58;;;7.80;92.50;;;;;;4982619;28;20041;-67
2021/09/25 04:30:00;;;;;;;3.58;2.53;;;7.70;92.40;;;;;;4982647;28;20038;-67
2021/09/25 04:32:27;;;;;;;2.73;2.50;;;7.70;92.60;;;;;;4983447;28;20031;-67
2021/09/25 04:34:53;;;;;;;2.78;2.10;;;7.60;92.80;;;;;;4988092;28;20067;-67
2021/09/25 04:37:19;;;;;;;2.97;2.53;;;7.60;92.20;;;;;;4984608;28;20572;-67
2021/09/25 04:39:44;;;;;;;3.55;3.05;;;7.70;92.00;;;;;;4984280;28;20751;-67
2021/09/25 04:42:10;;;;;;;3.42;2.58;;;7.60;92.10;;;;;;4985330;28;20122;-67
2021/09/25 04:44:36;;;;;;;3.83;2.92;;;7.60;92.80;;;;;;4987480;28;20089;-67
2021/09/25 04:47:01;;;;;;;3.72;2.78;;;7.60;92.30;;;;;;4982597;28;20050;-68
2021/09/25 04:49:27;;;;;;;4.10;3.58;;;7.60;92.60;;;;;;4982432;28;20812;-71
2021/09/25 04:51:53;;;;;;;4.10;2.95;;;7.60;93.30;;;;;;4979250;28;20129;-67
2021/09/25 04:54:18;;;;;;;2.38;2.15;;;7.60;92.90;;;;;;4997486;28;20033;-68
2021/09/25 04:56:44;;;;;;;4.00;2.88;;;7.60;92.00;;;;;;4982868;28;20030;-67
2021/09/25 04:59:10;;;;;;;3.70;2.58;;;7.50;91.90;;;;;;4984680;28;20502;-67
2021/09/25 05:01:35;;;;;;;3.00;2.58;;;7.50;92.50;;;;;;4978467;28;20462;-67
2021/09/25 05:04:01;;;;;;;2.88;2.58;;;7.50;92.70;;;;;;4984189;28;20758;-67
2021/09/25 05:06:28;;;;;;;2.08;1.77;;;7.60;92.00;;;;;;4984253;28;20100;-68
2021/09/25 05:08:54;;;;;;;2.75;2.20;;;7.50;90.80;;;;;;4982982;28;20035;-67
2021/09/25 05:11:20;;;;;;;3.42;2.63;;;7.50;90.70;;;;;;4984388;28;20042;-67
2021/09/25 05:13:47;;;;;;;3.45;2.70;;;7.50;91.30;;;;;;4984574;28;20041;-67
2021/09/25 05:16:12;;;;;;;3.40;2.80;;;7.50;91.10;;;;;;4985238;28;20101;-67
2021/09/25 05:18:40;;;;;;;7.20;2.63;;;7.50;91.80;;;;;;4984069;28;20204;-67
2021/09/25 05:21:07;;;;;;;1.60;1.50;;;7.50;91.80;;;;;;4984520;28;20037;-67
2021/09/25 05:23:32;;;;;;;4.20;2.47;;;7.50;90.90;;;;;;4983028;28;20054;-67
2021/09/25 05:25:58;;;;;;;3.55;2.50;;;7.40;91.10;;;;;;4984799;28;20077;-67
2021/09/25 05:28:24;;;;;;;2.17;2.00;;;7.30;91.60;;;;;;4980433;28;20042;-67
2021/09/25 05:30:50;;;;;;;3.80;2.40;;;7.30;91.70;;;;;;4996702;28;20038;-67
2021/09/25 05:33:15;;;;;;;4.15;2.13;;;7.20;91.70;;;;;;4999219;28;20124;-67
2021/09/25 05:35:41;;;;;;;2.45;2.25;;;7.10;92.00;;;;;;4980115;28;20112;-67
2021/09/25 05:38:07;;;;;;;2.72;2.28;;;7.10;92.40;;;;;;4994832;28;20044;-68
2021/09/25 05:40:33;;;;;;;3.15;2.55;;;7.00;92.80;;;;;;4981992;28;20030;-67
2021/09/25 05:42:58;;;;;;;2.85;2.53;;;7.00;93.30;;;;;;4982098;28;20057;-67
2021/09/25 05:45:24;;;;;;;3.33;3.00;;;7.10;93.50;;;;;;4981693;28;20141;-67
2021/09/25 05:47:50;;;;;;;2.85;2.53;;;7.10;93.40;;;;;;4980194;28;20031;-67
2021/09/25 05:50:16;;;;;;;3.92;2.67;;;7.20;93.20;;;;;;4982134;28;20034;-67
2021/09/25 05:52:42;;;;;;;4.25;2.97;;;7.20;93.20;;;;;;4982306;28;20037;-67
2021/09/25 05:55:09;;;;;;;7.60;2.63;;;7.20;93.40;;;;;;4982648;28;20492;-67
2021/09/25 05:57:35;;;;;;;5.30;3.22;;;7.30;93.60;;;;;;4981255;28;20076;-67
2021/09/25 06:00:01;;;;;;;6.03;3.50;;;7.30;94.20;;;;;;4983756;28;20614;-67
2021/09/25 06:02:27;;;;;;;4.90;3.35;;;7.40;94.30;;;;;;4995830;28;20030;-68
2021/09/25 06:04:53;;;;;;;6.35;3.88;;;7.40;94.50;;;;;;4983042;28;20155;-68
2021/09/25 06:07:19;;;;;;;7.10;5.00;;;7.50;94.30;;;;;;4981064;28;20057;-67
2021/09/25 06:09:44;;;;;;;8.00;4.15;;;7.50;96.10;;;;;;4979269;28;20038;-67
2021/09/25 06:12:10;;;;;;;5.40;3.72;;;7.60;95.40;;;;;;4979865;28;20023;-67
2021/09/25 06:14:37;;;;;;;7.18;4.50;;;7.70;95.30;;;;;;4982858;28;20040;-68
2021/09/25 06:17:04;;;;;;;8.52;3.78;;;7.80;94.70;;;;;;4981960;28;20040;-68
2021/09/25 06:19:29;;;;;;;6.03;4.10;;;7.80;94.40;;;;;;4980517;28;20471;-67
2021/09/25 06:21:55;;;;;;;5.85;3.70;;;7.90;94.80;;;;;;4980926;28;20042;-68
2021/09/25 06:24:21;;;;;;;5.63;4.00;;;8.00;94.80;;;;;;4996765;28;20117;-68
2021/09/25 06:26:47;;;;;;;5.03;4.18;;;8.00;95.30;;;;;;4982445;28;20118;-70
2021/09/25 06:29:13;;;;;;;8.23;4.47;;;8.10;95.30;;;;;;4981309;28;20033;-68
2021/09/25 06:31:38;;;;;;;6.47;4.13;;;8.20;95.60;;;;;;4980816;28;20031;-67
2021/09/25 06:34:04;;;;;;;5.50;3.95;;;8.30;95.50;;;;;;4983387;28;20515;-68
2021/09/25 06:36:32;;;;;;;6.60;4.32;;;8.30;95.70;;;;;;4980957;28;20041;-68
2021/09/25 06:38:59;;;;;;;6.20;4.40;;;8.40;96.10;;;;;;4981742;28;20038;-67
2021/09/25 06:41:25;;;;;;;7.97;4.72;;;8.50;96.20;;;;;;4980560;28;20057;-69
2021/09/25 06:43:50;;;;;;;6.78;4.80;;;8.50;96.20;;;;;;4995226;28;20660;-67
2021/09/25 06:46:16;;;;;;;8.00;4.28;;;8.60;96.20;;;;;;4996336;28;20026;-67
2021/09/25 06:48:42;;;;;;;8.65;5.07;;;8.70;96.20;;;;;;4988658;28;20026;-67
2021/09/25 06:51:08;;;;;;;8.45;4.43;;;8.70;96.50;;;;;;4987977;28;20045;-68
2021/09/25 06:53:34;;;;;;;8.18;4.88;;;8.80;96.30;;;;;;5003075;28;20498;-68
2021/09/25 06:55:59;;;;;;;10.73;5.53;;;8.90;97.30;;;;;;4993263;28;20049;-68
2021/09/25 06:58:25;;;;;;;8.48;5.47;;;8.90;98.00;;;;;;4997300;28;20026;-67
2021/09/25 07:00:51;;;;;;;7.38;5.35;;;9.00;98.30;;;;;;4981476;28;20045;-68
2021/09/25 07:03:19;;;;;;;8.18;5.53;;;9.10;98.40;;;;;;4984655;28;20130;-69
2021/09/25 07:05:45;;;;;;;6.47;5.25;;;9.10;98.40;;;;;;4983035;28;20128;-67
2021/09/25 07:08:10;;;;;;;9.98;6.05;;;9.20;98.20;;;;;;4982115;28;20038;-68
2021/09/25 07:10:37;;;;;;;10.13;5.60;;;9.40;98.20;;;;;;4982795;28;20066;-67
2021/09/25 07:13:03;;;;;;;8.35;5.32;;;9.60;98.30;;;;;;4982440;28;20026;-68
2021/09/25 07:15:30;;;;;;;10.15;5.53;;;9.70;98.20;;;;;;4988314;28;20014;-68
2021/09/25 07:17:56;;;;;;;10.73;6.60;;;9.80;98.30;;;;;;4993298;28;20477;-68
2021/09/25 07:20:21;;;;;;;11.43;6.35;;;10.00;98.70;;;;;;4992030;28;20022;-67
2021/09/25 07:22:51;;;;;;;11.82;6.47;;;10.10;98.50;;;;;;4991838;28;21910;-67
2021/09/25 07:25:17;;;;;;;11.43;6.75;;;10.20;98.90;;;;;;4992451;28;20088;-67
2021/09/25 07:27:43;;;;;;;8.93;6.05;;;10.20;98.80;;;;;;5002275;28;20041;-69
2021/09/25 07:30:10;;;;;;;9.93;6.03;;;10.30;98.70;;;;;;5010360;28;20034;-69
2021/09/25 07:32:35;;;;;;;9.43;5.63;;;10.50;98.50;;;;;;4991242;28;20479;-68
2021/09/25 07:35:01;;;;;;;10.88;6.25;;;10.70;98.80;;;;;;4992992;28;20116;-67
2021/09/25 07:37:26;;;;;;;10.85;6.60;;;10.90;98.90;;;;;;4990147;28;20060;-68
2021/09/25 07:39:52;;;;;;;10.18;6.43;;;10.90;99.00;;;;;;4994805;28;20491;-67
2021/09/25 07:42:20;;;;;;;8.15;5.57;;;11.10;99.20;;;;;;4990019;28;20034;-68
2021/09/25 07:44:47;;;;;;;11.95;6.55;;;11.10;98.70;;;;;;4989548;28;20092;-68
2021/09/25 07:47:13;;;;;;;13.80;7.03;;;11.30;98.60;;;;;;4987161;28;20038;-68
2021/09/25 07:49:38;;;;;;;11.43;6.93;;;11.50;98.90;;;;;;4993223;28;20387;-68
2021/09/25 07:52:05;;;;;;;13.35;7.25;;;11.60;98.50;;;;;;4989649;28;20033;-67
2021/09/25 07:54:31;;;;;;;9.38;6.03;;;11.80;98.40;;;;;;5003471;28;20034;-68
2021/09/25 07:56:56;;;;;;;8.93;6.50;;;11.90;98.60;;;;;;4994011;28;20092;-68
2021/09/25 07:59:22;;;;;;;10.75;6.65;;;12.20;98.30;;;;;;4993712;28;20472;-68
2021/09/25 08:01:48;;;;;;;11.77;6.55;;;12.30;98.20;;;;;;4988375;28;20048;-67
2021/09/25 08:04:14;;;;;;;10.10;6.80;;;12.50;98.10;;;;;;4994554;28;20041;-68
2021/09/25 08:06:39;;;;;;;9.10;6.40;;;12.70;97.80;;;;;;4994095;28;20153;-68
2021/09/25 08:09:05;;;;;;;9.90;6.22;;;12.80;97.30;;;;;;4990812;28;20034;-68
2021/09/25 08:11:31;;;;;;;9.35;6.20;;;12.90;97.20;;;;;;5005198;28;20124;-68
2021/09/25 08:13:56;;;;;;;11.35;6.95;;;13.10;97.00;;;;;;4992447;28;20535;-68
2021/09/25 08:16:22;;;;;;;14.85;6.60;;;13.30;96.90;;;;;;4991123;28;20038;-69
2021/09/25 08:18:49;;;;;;;11.10;6.60;;;13.50;96.70;;;;;;5006244;28;20048;-68
2021/09/25 08:21:15;;;;;;;8.95;6.00;;;13.60;96.10;;;;;;4988244;28;20026;-67
2021/09/25 08:23:40;;;;;;;11.05;6.20;;;13.70;95.60;;;;;;4986958;28;20069;-68
2021/09/25 08:26:06;;;;;;;8.07;5.32;;;13.90;95.90;;;;;;4988187;28;20022;-68
2021/09/25 08:28:32;;;;;;;7.20;5.80;;;14.00;94.90;;;;;;4989032;28;20026;-68
2021/09/25 08:30:57;;;;;;;7.50;5.03;;;14.20;94.70;;;;;;5006992;28;20503;-68
2021/09/25 08:33:23;;;;;;;8.18;5.97;;;14.40;94.20;;;;;;4985863;28;20030;-67
2021/09/25 08:35:48;;;;;;;7.93;4.85;;;14.50;94.00;;;;;;4988669;28;20081;-68
2021/09/25 08:38:14;;;;;;;8.07;5.90;;;14.70;93.30;;;;;;4987305;28;20644;-68
2021/09/25 08:40:40;;;;;;;8.50;5.00;;;14.80;92.60;;;;;;4988567;28;20085;-68
2021/09/25 08:43:06;;;;;;;6.57;4.70;;;14.90;92.10;;;;;;4985756;28;20034;-67
2021/09/25 08:45:31;;;;;;;6.53;4.93;;;15.10;92.00;;;;;;4995799;28;20044;-67
2021/09/25 08:47:58;;;;;;;9.50;5.00;;;15.20;91.80;;;;;;4986096;28;20026;-67
2021/09/25 08:50:25;;;;;;;7.63;4.65;;;15.30;91.40;;;;;;4989213;28;20132;-67
2021/09/25 08:52:51;;;;;;;6.17;4.70;;;15.40;91.00;;;;;;4987657;28;20381;-68
2021/09/25 08:55:16;;;;;;;6.13;4.47;;;15.50;90.20;;;;;;4987320;28;20034;-68
2021/09/25 08:57:42;;;;;;;8.13;4.82;;;15.60;90.60;;;;;;4989731;28;20040;-68
2021/09/25 09:00:26;;;;;;;5.53;4.25;;;15.80;90.20;;;;;;4989332;28;20028;-68
2021/09/25 09:02:53;;;;;;;6.97;4.60;;;16.00;90.40;;;;;;4986632;28;20124;-68
2021/09/25 09:05:29;;;;;;;8.93;4.68;;;16.10;90.40;;;;;;4989686;28;20072;-68
2021/09/25 09:07:59;;;;;;;7.28;4.63;;;16.30;90.00;;;;;;4990231;28;20112;-68
2021/09/25 09:10:33;;;;;;;6.88;5.00;;;16.40;87.70;;;;;;4989364;28;20026;-68
2021/09/25 09:13:00;;;;;;;5.90;4.60;;;16.50;87.50;;;;;;4986955;28;20034;-68
2021/09/25 09:15:52;;;;;;;5.63;4.00;;;16.70;88.20;;;;;;4993814;28;20072;-68
2021/09/25 09:18:20;;;;;;;7.82;4.47;;;16.80;87.70;;;;;;4989220;28;20435;-68
2021/09/25 09:21:24;;;;;;;6.50;4.20;;;16.80;87.10;;;;;;4987332;28;20444;-69
2021/09/25 09:23:52;;;;;;;8.38;4.70;;;16.90;87.40;;;;;;5000644;28;20471;-68
2021/09/25 09:26:30;;;;;;;4.93;4.30;;;17.10;87.40;;;;;;4988962;28;20046;-68
2021/09/25 09:28:57;;;;;;;5.77;4.27;;;17.30;88.90;;;;;;4990029;28;20467;-69
2021/09/25 09:31:23;;;;;;;6.70;4.30;;;17.40;86.80;;;;;;5007246;28;20044;-68
2021/09/25 09:33:51;;;;;;;6.60;4.28;;;17.60;87.10;;;;;;4987829;28;20026;-68
2021/09/25 09:36:34;;;;;;;4.35;3.95;;;17.70;86.40;;;;;;4984982;28;20137;-68
2021/09/25 09:39:00;;;;;;;6.18;4.28;;;17.80;85.80;;;;;;4983227;28;20072;-68
2021/09/25 09:41:30;;;;;;;5.70;4.30;;;17.80;85.00;;;;;;4999238;28;20062;-68
2021/09/25 09:45:57;;;;;;;10.38;5.85;;;18.10;83.50;;;;;;5036859;28;20427;-66
2021/09/25 09:48:23;;;;;;;6.63;4.15;;;18.20;84.20;;;;;;5021400;28;20630;-66
2021/09/25 09:50:50;;;;;;;5.05;4.05;;;18.20;84.00;;;;;;5013368;28;20040;-66
2021/09/25 09:53:16;;;;;;;5.47;3.72;;;18.40;84.50;;;;;;5029690;28;20033;-66
2021/09/25 09:55:42;;;;;;;7.13;4.45;;;18.50;83.70;;;;;;5013387;28;20037;-65
2021/09/25 09:58:08;;;;;;;6.43;4.28;;;18.60;80.80;;;;;;5013625;28;20093;-68
2021/09/25 10:00:35;;;;;;;5.15;3.63;;;18.70;82.40;;;;;;5015101;28;20045;-64
2021/09/25 10:03:01;;;;;;;5.10;3.58;;;18.70;82.50;;;;;;5031311;28;20025;-64
2021/09/25 10:05:27;;;;;;;6.15;3.90;;;18.80;82.50;;;;;;5035708;28;20041;-65
2021/09/25 10:07:53;;;;;;;5.55;4.03;;;19.00;79.80;;;;;;5034443;28;20100;-64
2021/09/25 10:10:21;;;;;;;4.90;3.55;;;19.10;80.20;;;;;;5034230;28;20029;-64
2021/09/25 10:12:47;;;;;;;10.20;4.50;;;19.20;78.90;;;;;;5035254;28;20021;-64
2021/09/25 10:15:14;;;;;;;4.20;3.65;;;19.20;79.10;;;;;;5034838;28;20453;-65
2021/09/25 10:17:44;;;;;;;4.13;3.47;;;19.30;78.10;;;;;;5033413;28;20761;-65
2021/09/25 10:20:12;;;;;;;3.63;3.13;;;19.40;77.70;;;;;;5034492;28;20547;-64
2021/09/25 10:22:38;;;;;;;4.20;3.40;;;19.40;76.90;;;;;;5033227;28;20063;-65
2021/09/25 10:25:11;;;;;;;5.13;3.45;;;19.50;75.10;;;;;;5033496;28;20461;-65
2021/09/25 10:27:41;;;;;;;4.68;3.70;;;19.60;75.80;;;;;;5033035;28;20478;-65
2021/09/25 10:30:10;;;;;;;5.50;3.28;;;19.60;74.80;;;;;;5036231;28;20029;-64
2021/09/25 10:32:43;;;;;;;7.78;3.75;;;19.60;73.80;;;;;;5034829;28;20021;-65
2021/09/25 10:35:25;;;;;;;37.53;11.18;;;19.80;73.40;;;;;;5034187;28;20031;-64
2021/09/25 10:37:53;;;;;;;4.75;3.20;;;19.90;74.70;;;;;;5031819;28;20083;-65
2021/09/25 10:40:21;;;;;;;5.32;3.78;;;19.90;73.50;;;;;;5033720;28;20670;-64
2021/09/25 10:42:55;;;;;;;5.80;3.30;;;20.00;72.00;;;;;;5034472;28;20025;-64
2021/09/25 10:45:24;;;;;;;3.97;3.05;;;20.00;70.50;;;;;;5029265;28;20041;-65
2021/09/25 10:48:13;;;;;;;4.68;3.15;;;20.00;71.90;;;;;;5032397;28;20064;-65
2021/09/25 10:51:01;;;;;;;3.42;3.13;;;19.90;71.70;;;;;;5032605;28;20824;-64
2021/09/25 10:53:32;;;;;;;5.82;3.10;;;19.90;71.50;;;;;;5026669;28;20033;-65
2021/09/25 10:55:59;;;;;;;4.57;3.40;;;20.00;72.20;;;;;;5025049;28;20029;-64
2021/09/25 10:58:25;;;;;;;4.15;2.83;;;20.10;71.80;;;;;;5031291;28;20033;-64
2021/09/25 11:00:55;;;;;;;3.08;2.60;;;20.00;69.90;;;;;;5018146;28;20048;-65
2021/09/25 11:03:43;;;;;;;5.28;2.63;;;20.00;67.90;;;;;;5021235;28;20075;-64
2021/09/25 11:06:21;;;;;;;;;;;20.20;67.50;;;;;;5021761;28;20029;-65
2021/09/25 11:08:49;;;;;;;12.23;3.67;;;20.20;68.50;;;;;;5018637;28;19917;-65
2021/09/25 11:11:17;;;;;;;5.13;3.15;;;20.30;70.10;;;;;;5020067;28;20112;-64
2021/09/25 11:14:01;;;;;;;3.55;2.90;;;20.40;69.30;;;;;;5032523;28;20044;-64
2021/09/25 11:16:43;;;;;;;3.60;2.92;;;20.30;68.80;;;;;;5019855;28;20817;-65
2021/09/25 11:19:30;;;;;;;5.63;3.15;;;20.30;67.50;;;;;;5018895;28;20041;-65
2021/09/25 11:22:06;;;;;;;4.50;3.17;;;20.40;68.70;;;;;;5019625;28;20041;-65
2021/09/25 11:24:48;;;;;;;4.18;2.90;;;20.50;67.70;;;;;;5015125;28;20033;-64
2021/09/25 11:27:27;;;;;;;3.85;2.88;;;20.60;67.60;;;;;;5019967;28;20033;-65
2021/09/25 11:30:06;;;;;;;5.57;3.42;;;20.60;65.40;;;;;;5020219;28;20037;-70
2021/09/25 11:32:35;;;;;;;4.53;2.85;;;20.60;67.50;;;;;;5015643;28;20103;-64
2021/09/25 11:35:06;;;;;;;4.50;2.85;;;20.60;67.10;;;;;;5034028;28;20033;-65
2021/09/25 11:37:32;;;;;;;3.58;3.00;;;20.60;67.90;;;;;;5020596;28;20033;-65
2021/09/25 11:39:58;;;;;;;5.70;3.35;;;20.60;69.20;;;;;;5020957;28;20078;-65
2021/09/25 11:42:27;;;;;;;3.63;2.75;;;20.70;68.70;;;;;;5017126;28;20033;-65
2021/09/25 11:44:56;;;;;;;4.65;3.00;;;20.60;67.80;;;;;;5015512;28;20821;-64
2021/09/25 11:47:33;;;;;;;20.55;6.68;;;20.60;67.50;;;;;;5020637;28;20022;-65
2021/09/25 11:50:10;;;;;;;15.00;5.28;;;20.70;68.00;;;;;;5018408;28;20032;-65
2021/09/25 11:52:36;;;;;;;9.80;3.85;;;20.80;68.10;;;;;;5019688;28;20079;-65
2021/09/25 11:55:02;;;;;;;4.18;2.67;;;20.80;68.80;;;;;;5017605;28;20033;-65
2021/09/25 11:57:28;;;;;;;4.70;3.00;;;20.60;67.90;;;;;;5018642;28;20033;-65
2021/09/25 11:59:53;;;;;;;3.92;3.00;;;20.60;68.50;;;;;;5019951;28;20115;-65
2021/09/25 12:02:40;;;;;;;3.63;3.03;;;20.60;68.20;;;;;;5017773;28;20046;-65
2021/09/25 12:05:23;;;;;;;3.72;2.72;;;20.60;68.40;;;;;;5018968;28;20026;-65
2021/09/25 12:07:50;;;;;;;3.17;2.88;;;20.70;68.00;;;;;;5020487;28;20398;-65
2021/09/25 12:10:17;;;;;;;3.20;2.90;;;20.80;67.00;;;;;;5019346;28;20513;-65
2021/09/25 12:12:43;;;;;;;4.90;2.97;;;20.80;68.30;;;;;;5019904;28;20094;-64
2021/09/25 12:15:09;;;;;;;2.97;2.60;;;20.90;66.10;;;;;;5019429;28;20033;-65
2021/09/25 12:17:34;;;;;;;4.65;2.58;;;21.00;62.70;;;;;;5017440;28;20041;-65
2021/09/25 12:20:33;;;;;;;4.22;3.13;;;21.00;65.20;;;;;;5021773;28;20037;-65
2021/09/25 12:22:59;;;;;;;4.50;2.60;;;21.10;65.50;;;;;;4999257;28;20429;-65
2021/09/25 12:25:26;;;;;;;3.35;2.50;;;21.10;65.30;;;;;;5033519;28;20562;-64
2021/09/25 12:27:51;;;;;;;3.05;2.60;;;21.10;64.00;;;;;;5026999;28;21303;-64
2021/09/25 12:30:17;;;;;;;5.05;2.65;;;21.20;62.60;;;;;;5019106;28;20029;-68
2021/09/25 12:32:57;;;;;;;2.60;2.38;;;21.20;63.00;;;;;;5017611;28;20025;-68
2021/09/25 12:35:23;;;;;;;3.10;2.47;;;21.10;61.10;;;;;;5019394;28;20068;-68
2021/09/25 12:37:50;;;;;;;4.28;3.03;;;21.10;62.30;;;;;;5024400;28;20060;-68
2021/09/25 12:40:17;;;;;;;2.55;2.35;;;21.20;63.00;;;;;;5025698;28;20469;-67
2021/09/25 12:42:44;;;;;;;2.60;2.40;;;21.20;61.30;;;;;;5027180;28;20037;-67
2021/09/25 12:45:11;;;;;;;3.17;2.78;;;21.10;62.80;;;;;;5027777;28;20064;-68
2021/09/25 12:47:37;;;;;;;3.33;2.67;;;21.20;64.10;;;;;;5026291;28;20430;-68
2021/09/25 12:50:24;;;;;;;3.88;2.50;;;21.30;63.30;;;;;;5021217;28;20037;-67
2021/09/25 12:52:57;;;;;;;2.90;2.27;;;21.30;62.40;;;;;;5026549;28;20022;-67
2021/09/25 12:55:24;;;;;;;2.55;2.33;;;21.30;62.90;;;;;;5024212;28;20040;-68
2021/09/25 12:57:58;;;;;;;3.10;2.78;;;21.30;61.90;;;;;;5028358;28;20961;-67